createdAt,value
2018-03-11T00:00:58.939Z,79.93
2018-03-11T00:03:28.183Z,79.95
2018-03-11T00:05:58.151Z,80.06
2018-03-11T00:08:27.367Z,80.10
2018-03-11T00:10:56.577Z,79.96
2018-03-11T00:13:26.583Z,80.12
2018-03-11T00:15:55.808Z,80.24
2018-03-11T00:18:25.808Z,80.18
2018-03-11T00:20:55.874Z,80.10
2018-03-11T00:23:25.104Z,80.18
2018-03-11T00:25:54.337Z,80.24
2018-03-11T00:28:24.271Z,80.36
2018-03-11T00:30:53.506Z,80.42
2018-03-11T00:33:22.757Z,80.49
2018-03-11T00:35:52.794Z,80.53
2018-03-11T00:38:22.081Z,80.51
2018-03-11T00:40:51.283Z,80.56
2018-03-11T00:43:20.690Z,80.63
2018-03-11T00:45:50.357Z,80.49
2018-03-11T00:48:19.579Z,80.41
2018-03-11T00:50:48.784Z,80.34
2018-03-11T00:53:17.974Z,80.41
2018-03-11T00:55:47.182Z,80.77
2018-03-11T00:58:16.524Z,80.96
2018-03-11T01:00:45.724Z,80.79
2018-03-11T01:03:14.939Z,80.67
2018-03-11T01:05:44.163Z,80.58
2018-03-11T01:08:13.394Z,80.54
2018-03-11T01:10:42.620Z,80.52
2018-03-11T01:13:12.542Z,80.65
2018-03-11T01:15:41.768Z,80.55
2018-03-11T01:18:11.784Z,80.62
2018-03-11T01:20:41.002Z,80.59
2018-03-11T01:23:10.287Z,80.79
2018-03-11T01:25:39.499Z,80.97
2018-03-11T01:28:08.740Z,81.21
2018-03-11T01:30:37.952Z,81.17
2018-03-11T01:33:07.194Z,81.45
2018-03-11T01:35:36.434Z,81.42
2018-03-11T01:38:06.453Z,81.69
2018-03-11T01:40:35.710Z,81.84
2018-03-11T01:43:04.944Z,82.08
2018-03-11T01:45:34.181Z,82.16
2018-03-11T01:48:04.259Z,82.10
2018-03-11T01:50:33.520Z,81.94
2018-03-11T01:53:09.519Z,81.98
2018-03-11T01:55:38.775Z,81.92
2018-03-11T01:58:08.018Z,81.90
2018-03-11T02:00:37.240Z,81.90
2018-03-11T02:03:07.242Z,81.85
2018-03-11T02:05:36.466Z,81.82
2018-03-11T02:08:05.801Z,82.08
2018-03-11T02:10:35.010Z,82.09
2018-03-11T02:13:04.238Z,82.08
2018-03-11T02:15:34.235Z,82.11
2018-03-11T02:18:03.446Z,82.33
2018-03-11T02:20:33.441Z,82.57
2018-03-11T02:23:02.671Z,82.63
2018-03-11T02:25:32.646Z,82.76
2018-03-11T02:28:01.892Z,82.69
2018-03-11T02:30:31.943Z,82.91
2018-03-11T02:33:01.205Z,83.15
2018-03-11T02:35:30.393Z,83.47
2018-03-11T02:38:00.389Z,83.80
2018-03-11T02:40:29.616Z,83.68
2018-03-11T02:42:59.616Z,83.71
2018-03-11T02:45:28.807Z,83.97
2018-03-11T02:47:58.051Z,84.23
2018-03-11T02:50:27.280Z,84.33
2018-03-11T02:52:56.523Z,84.25
2018-03-11T02:55:25.840Z,84.37
2018-03-11T02:57:55.050Z,85.19
2018-03-11T03:00:24.283Z,85.93
2018-03-11T03:02:53.513Z,86.49
2018-03-11T03:05:23.537Z,86.69
2018-03-11T03:07:54.152Z,86.92
2018-03-11T03:10:24.137Z,86.85
2018-03-11T03:12:53.340Z,86.67
2018-03-11T03:15:22.556Z,86.66
2018-03-11T03:17:52.122Z,86.64
2018-03-11T03:20:21.405Z,87.05
2018-03-11T03:22:50.638Z,87.11
2018-03-11T03:25:19.900Z,87.12
2018-03-11T03:27:49.168Z,86.89
2018-03-11T03:30:19.183Z,86.87
2018-03-11T03:32:49.151Z,86.92
2018-03-11T03:35:18.581Z,86.97
2018-03-11T03:37:47.838Z,86.92
2018-03-11T03:40:17.072Z,87.27
2018-03-11T03:42:46.324Z,87.12
2018-03-11T03:45:15.582Z,86.82
2018-03-11T03:47:44.798Z,86.87
2018-03-11T03:50:14.844Z,86.97
2018-03-11T03:52:44.084Z,86.74
2018-03-11T03:55:14.119Z,87.01
2018-03-11T03:57:44.234Z,86.92
2018-03-11T04:00:14.371Z,87.03
2018-03-11T04:02:44.342Z,87.12
2018-03-11T04:05:13.607Z,87.29
2018-03-11T04:07:42.847Z,87.28
2018-03-11T04:10:12.351Z,87.08
2018-03-11T04:12:41.859Z,87.23
2018-03-11T04:15:11.074Z,87.31
2018-03-11T04:17:40.329Z,86.99
2018-03-11T04:20:10.418Z,87.17
2018-03-11T04:22:39.694Z,87.00
2018-03-11T04:25:08.874Z,87.05
2018-03-11T04:27:38.109Z,87.04
2018-03-11T04:30:08.159Z,86.95
2018-03-11T04:32:37.382Z,87.16
2018-03-11T04:35:06.671Z,87.21
2018-03-11T04:37:35.857Z,87.34
2018-03-11T04:40:05.709Z,87.49
2018-03-11T04:42:35.744Z,87.55
2018-03-11T04:45:04.957Z,87.66
2018-03-11T04:47:35.039Z,87.45
2018-03-11T04:50:04.268Z,87.35
2018-03-11T04:52:33.524Z,87.13
2018-03-11T04:55:02.773Z,86.93
2018-03-11T04:57:31.998Z,86.90
2018-03-11T05:00:01.212Z,86.63
2018-03-11T05:02:30.495Z,86.44
2018-03-11T05:04:59.699Z,86.46
2018-03-11T05:07:29.082Z,86.90
2018-03-11T05:09:59.127Z,87.27
2018-03-11T05:12:28.281Z,87.26
2018-03-11T05:14:57.517Z,87.34
2018-03-11T05:17:26.719Z,87.65
2018-03-11T05:19:56.012Z,87.74
2018-03-11T05:22:25.223Z,87.82
2018-03-11T05:24:55.225Z,87.56
2018-03-11T05:27:24.482Z,87.38
2018-03-11T05:29:53.763Z,87.27
2018-03-11T05:32:24.019Z,87.06
2018-03-11T05:34:53.277Z,86.71
2018-03-11T05:37:23.237Z,86.89
2018-03-11T05:39:52.480Z,86.75
2018-03-11T05:42:22.473Z,86.67
2018-03-11T05:44:51.712Z,87.05
2018-03-11T05:47:20.952Z,87.20
2018-03-11T05:49:50.164Z,87.27
2018-03-11T05:52:19.375Z,87.04
2018-03-11T05:54:48.594Z,86.75
2018-03-11T05:57:17.832Z,86.38
2018-03-11T05:59:47.063Z,86.34
2018-03-11T06:02:16.296Z,85.76
2018-03-11T06:04:46.268Z,85.41
2018-03-11T06:07:15.498Z,85.41
2018-03-11T06:09:45.473Z,85.42
2018-03-11T06:12:14.764Z,85.64
2018-03-11T06:14:43.991Z,85.51
2018-03-11T06:17:13.260Z,85.61
2018-03-11T06:19:42.482Z,85.59
2018-03-11T06:22:12.566Z,85.53
2018-03-11T06:24:41.808Z,85.44
2018-03-11T06:27:11.145Z,85.46
2018-03-11T06:29:40.338Z,85.49
2018-03-11T06:32:09.575Z,85.64
2018-03-11T06:34:39.547Z,85.74
2018-03-11T06:37:08.788Z,85.61
2018-03-11T06:39:38.020Z,85.55
2018-03-11T06:42:07.241Z,85.37
2018-03-11T06:44:36.446Z,85.11
2018-03-11T06:47:06.418Z,85.07
2018-03-11T06:49:35.650Z,84.86
2018-03-11T06:52:04.906Z,84.73
2018-03-11T06:54:34.244Z,84.85
2018-03-11T06:57:04.234Z,84.73
2018-03-11T06:59:33.459Z,84.77
2018-03-11T07:02:02.795Z,84.51
2018-03-11T07:04:32.214Z,84.48
2018-03-11T07:07:01.412Z,84.36
2018-03-11T07:09:30.634Z,84.09
2018-03-11T07:11:59.832Z,83.65
2018-03-11T07:14:29.818Z,83.65
2018-03-11T07:16:59.040Z,83.51
2018-03-11T07:19:28.518Z,83.16
2018-03-11T07:21:57.726Z,82.57
2018-03-11T07:24:26.941Z,82.31
2018-03-11T07:26:56.192Z,81.92
2018-03-11T07:29:26.303Z,81.58
2018-03-11T07:31:55.507Z,81.58
2018-03-11T07:34:24.753Z,81.53
2018-03-11T07:39:29.376Z,81.48
2018-03-11T07:41:58.594Z,81.82
2018-03-11T07:44:27.838Z,82.35
2018-03-11T07:46:57.047Z,82.81
2018-03-11T07:49:26.286Z,83.11
2018-03-11T07:51:55.528Z,82.98
2018-03-11T07:54:24.779Z,83.03
2018-03-11T07:56:54.021Z,82.91
2018-03-11T07:59:23.235Z,82.85
2018-03-11T08:01:52.497Z,82.88
2018-03-11T08:04:21.663Z,82.92
2018-03-11T08:06:50.900Z,82.98
2018-03-11T08:09:20.091Z,82.99
2018-03-11T08:11:50.106Z,82.58
2018-03-11T08:14:20.099Z,82.66
2018-03-11T08:16:49.309Z,82.12
2018-03-11T08:19:19.327Z,82.18
2018-03-11T08:21:48.655Z,81.88
2018-03-11T08:24:17.880Z,81.65
2018-03-11T08:26:47.089Z,81.24
2018-03-11T08:29:17.090Z,81.28
2018-03-11T08:31:46.317Z,80.98
2018-03-11T08:34:15.551Z,80.75
2018-03-11T08:36:44.755Z,80.48
2018-03-11T08:39:14.055Z,80.20
2018-03-11T08:41:44.063Z,79.77
2018-03-11T08:44:13.821Z,79.54
2018-03-11T08:46:43.064Z,79.38
2018-03-11T08:49:13.288Z,79.07
2018-03-11T08:51:43.673Z,78.84
2018-03-11T08:54:12.928Z,78.79
2018-03-11T08:56:42.136Z,78.60
2018-03-11T08:59:11.374Z,78.63
2018-03-11T09:01:40.596Z,78.36
2018-03-11T09:04:10.623Z,77.92
2018-03-11T09:06:40.618Z,77.38
2018-03-11T09:09:09.879Z,76.87
2018-03-11T09:11:39.107Z,76.60
2018-03-11T09:14:09.143Z,76.20
2018-03-11T09:16:39.155Z,75.33
2018-03-11T09:19:08.596Z,74.60
2018-03-11T09:21:37.876Z,74.14
2018-03-11T09:24:07.841Z,73.75
2018-03-11T09:26:37.097Z,73.98
2018-03-11T09:29:06.446Z,73.48
2018-03-11T09:31:35.718Z,73.27
2018-03-11T09:34:04.932Z,72.97
2018-03-11T09:36:34.190Z,72.85
2018-03-11T09:39:03.398Z,72.41
2018-03-11T09:41:32.637Z,72.27
2018-03-11T09:44:01.876Z,71.60
2018-03-11T09:46:31.141Z,71.87
2018-03-11T09:49:01.587Z,71.33
2018-03-11T09:51:31.661Z,71.68
2018-03-11T09:54:00.967Z,71.03
2018-03-11T09:56:30.217Z,70.67
2018-03-11T09:59:00.239Z,70.49
2018-03-11T10:01:29.553Z,70.14
2018-03-11T10:03:58.771Z,70.32
2018-03-11T10:06:28.036Z,70.08
2018-03-11T10:08:57.228Z,70.13
2018-03-11T10:11:26.467Z,69.73
2018-03-11T10:13:55.790Z,70.68
2018-03-11T10:16:25.042Z,70.23
2018-03-11T10:18:54.285Z,69.79
2018-03-11T10:21:23.529Z,70.43
2018-03-11T10:23:52.786Z,70.01
2018-03-11T10:26:22.014Z,70.12
2018-03-11T10:28:52.005Z,70.36
2018-03-11T10:31:21.211Z,70.47
2018-03-11T10:33:51.985Z,70.92
2018-03-11T10:36:21.224Z,71.35
2018-03-11T10:38:50.444Z,70.93
2018-03-11T10:41:20.450Z,70.94
2018-03-11T10:43:49.707Z,70.52
2018-03-11T10:46:18.983Z,70.25
2018-03-11T10:48:48.210Z,69.78
2018-03-11T10:51:17.704Z,69.78
2018-03-11T10:53:46.924Z,69.63
2018-03-11T10:56:16.261Z,69.07
2018-03-11T10:58:47.227Z,69.26
2018-03-11T11:01:16.697Z,69.10
2018-03-11T11:03:51.408Z,69.10
2018-03-11T11:06:20.690Z,67.99
2018-03-11T11:08:49.997Z,68.08
2018-03-11T11:11:19.228Z,68.02
2018-03-11T11:13:49.533Z,68.18
2018-03-11T11:16:18.748Z,68.53
2018-03-11T11:18:48.744Z,68.68
2018-03-11T11:21:17.963Z,68.63
2018-03-11T11:23:47.943Z,67.99
2018-03-11T11:26:17.393Z,67.87
2018-03-11T11:28:46.596Z,67.92
2018-03-11T11:31:15.999Z,67.32
2018-03-11T11:33:45.950Z,67.25
2018-03-11T11:36:15.186Z,66.57
2018-03-11T11:38:45.260Z,66.00
2018-03-11T11:41:14.530Z,66.29
2018-03-11T11:43:43.783Z,65.84
2018-03-11T11:46:14.640Z,66.50
2018-03-11T11:48:43.953Z,66.11
2018-03-11T11:51:13.238Z,65.77
2018-03-11T11:53:42.642Z,65.80
2018-03-11T11:56:12.220Z,65.53
2018-03-11T11:58:41.561Z,65.65
2018-03-11T12:01:10.790Z,66.12
2018-03-11T12:03:40.085Z,65.69
2018-03-11T12:06:09.341Z,66.28
2018-03-11T12:08:39.375Z,66.33
2018-03-11T12:11:08.634Z,65.97
2018-03-11T12:13:38.037Z,65.94
2018-03-11T12:16:07.254Z,65.79
2018-03-11T12:18:36.696Z,65.98
2018-03-11T12:21:06.322Z,66.17
2018-03-11T12:23:35.593Z,66.06
2018-03-11T12:26:04.835Z,66.60
2018-03-11T12:28:34.114Z,66.86
2018-03-11T12:31:03.362Z,67.13
2018-03-11T12:33:33.371Z,66.76
2018-03-11T12:36:02.623Z,66.72
2018-03-11T12:38:31.836Z,66.58
2018-03-11T12:41:01.123Z,66.95
2018-03-11T12:43:31.073Z,67.00
2018-03-11T12:46:01.114Z,67.17
2018-03-11T12:48:30.330Z,66.88
2018-03-11T12:51:00.462Z,66.08
2018-03-11T12:53:29.862Z,65.57
2018-03-11T12:55:59.862Z,65.91
2018-03-11T12:58:29.159Z,65.64
2018-03-11T13:00:58.399Z,66.02
2018-03-11T13:03:27.628Z,65.92
2018-03-11T13:05:57.618Z,65.50
2018-03-11T13:08:26.909Z,65.95
2018-03-11T13:10:56.174Z,65.69
2018-03-11T13:13:26.157Z,65.61
2018-03-11T13:15:56.149Z,65.28
2018-03-11T13:18:25.402Z,64.44
2018-03-11T13:21:09.200Z,64.52
2018-03-11T13:23:38.866Z,63.89
2018-03-11T13:26:08.176Z,63.49
2018-03-11T13:28:48.027Z,63.50
2018-03-11T13:31:17.241Z,63.69
2018-03-11T13:34:04.030Z,62.86
2018-03-11T13:36:33.252Z,62.58
2018-03-11T13:39:20.226Z,62.33
2018-03-11T13:41:49.492Z,62.14
2018-03-11T13:44:19.557Z,62.52
2018-03-11T13:47:09.024Z,62.47
2018-03-11T13:49:38.266Z,62.19
2018-03-11T13:52:26.417Z,61.77
2018-03-11T13:54:55.675Z,62.18
2018-03-11T14:11:06.255Z,61.07
2018-03-11T14:13:35.507Z,61.31
2018-03-11T14:16:04.730Z,61.54
2018-03-11T14:18:33.955Z,61.40
2018-03-11T14:21:03.939Z,61.49
2018-03-11T14:23:33.155Z,61.45
2018-03-11T14:26:03.139Z,61.52
2018-03-11T14:28:32.374Z,61.57
2018-03-11T14:31:01.704Z,61.21
2018-03-11T14:33:30.931Z,61.03
2018-03-11T14:36:00.132Z,61.80
2018-03-11T14:38:29.379Z,61.73
2018-03-11T14:40:59.454Z,61.80
2018-03-11T14:43:28.676Z,61.89
2018-03-11T14:45:58.055Z,62.29
2018-03-11T14:48:27.299Z,62.50
2018-03-11T14:50:57.265Z,62.91
2018-03-11T14:53:26.488Z,63.02
2018-03-11T14:55:55.720Z,63.27
2018-03-11T14:58:25.739Z,63.89
2018-03-11T15:00:55.087Z,63.58
2018-03-11T15:03:24.427Z,63.75
2018-03-11T15:05:54.403Z,63.48
2018-03-11T15:08:23.668Z,64.09
2018-03-11T15:10:53.334Z,63.87
2018-03-11T15:13:23.335Z,63.69
2018-03-11T15:15:52.539Z,63.83
2018-03-11T15:18:22.593Z,64.04
2018-03-11T15:20:51.908Z,63.64
2018-03-11T15:23:21.171Z,63.84
2018-03-11T15:25:51.211Z,63.88
2018-03-11T15:28:20.501Z,64.01
2018-03-11T15:30:49.835Z,64.15
2018-03-11T15:33:19.106Z,64.13
2018-03-11T15:35:48.367Z,64.64
2018-03-11T15:38:17.604Z,64.08
2018-03-11T15:40:47.697Z,64.22
2018-03-11T15:43:17.696Z,64.26
2018-03-11T15:45:46.958Z,64.22
2018-03-11T15:48:16.359Z,64.32
2018-03-11T15:50:45.632Z,64.54
2018-03-11T15:53:14.858Z,64.51
2018-03-11T15:55:44.103Z,64.72
2018-03-11T15:58:13.329Z,64.79
2018-03-11T16:00:43.303Z,65.06
2018-03-11T16:03:12.555Z,65.25
2018-03-11T16:05:41.810Z,65.22
2018-03-11T16:08:11.048Z,65.38
2018-03-11T16:10:40.283Z,65.49
2018-03-11T16:13:09.529Z,65.77
2018-03-11T16:15:39.516Z,65.60
2018-03-11T16:18:08.754Z,65.88
2018-03-11T16:20:38.018Z,65.78
2018-03-11T16:23:08.153Z,65.82
2018-03-11T16:25:38.190Z,65.59
2018-03-11T16:28:07.395Z,65.68
2018-03-11T16:30:36.684Z,66.06
2018-03-11T16:33:06.725Z,66.08
2018-03-11T16:35:35.904Z,66.04
2018-03-11T16:38:05.211Z,66.10
2018-03-11T16:40:34.472Z,66.37
2018-03-11T16:43:03.687Z,66.33
2018-03-11T16:45:32.912Z,66.98
2018-03-11T16:48:02.205Z,66.89
2018-03-11T16:50:32.274Z,67.04
2018-03-11T16:53:01.545Z,67.06
2018-03-11T16:55:30.891Z,67.22
2018-03-11T16:58:00.737Z,67.45
2018-03-11T17:00:30.053Z,67.53
2018-03-11T17:02:59.298Z,67.88
2018-03-11T17:05:29.336Z,67.78
2018-03-11T17:07:59.336Z,68.06
2018-03-11T17:10:29.346Z,68.19
2018-03-11T17:12:59.354Z,68.45
2018-03-11T17:15:29.388Z,68.61
2018-03-11T17:17:59.390Z,69.12
2018-03-11T17:20:29.460Z,69.07
2018-03-11T17:22:58.786Z,69.22
2018-03-11T17:25:28.206Z,69.48
2018-03-11T17:27:58.204Z,69.69
2018-03-11T17:30:27.485Z,70.01
2018-03-11T17:32:56.865Z,70.26
2018-03-11T17:35:27.073Z,70.50
2018-03-11T17:37:56.324Z,70.83
2018-03-11T17:40:25.567Z,70.79
2018-03-11T17:42:54.803Z,71.05
2018-03-11T17:45:24.059Z,71.09
2018-03-11T17:47:54.077Z,71.32
2018-03-11T17:50:24.179Z,71.53
2018-03-11T17:52:54.135Z,71.71
2018-03-11T17:55:23.351Z,72.01
2018-03-11T17:57:52.624Z,72.32
2018-03-11T18:00:21.882Z,72.55
2018-03-11T18:02:51.156Z,72.88
2018-03-11T18:05:21.221Z,73.05
2018-03-11T18:07:50.506Z,73.27
2018-03-11T18:10:20.528Z,73.62
2018-03-11T18:12:49.783Z,73.70
2018-03-11T18:15:19.004Z,73.70
2018-03-11T18:17:48.282Z,73.97
2018-03-11T18:20:17.804Z,74.16
2018-03-11T18:22:47.052Z,74.26
2018-03-11T18:25:16.255Z,74.57
2018-03-11T18:27:45.496Z,74.52
2018-03-11T18:30:14.762Z,74.61
2018-03-11T18:32:44.044Z,75.01
2018-03-11T18:35:13.344Z,74.98
2018-03-11T18:37:42.558Z,74.90
2018-03-11T18:40:11.825Z,75.06
2018-03-11T18:42:41.045Z,74.96
2018-03-11T18:45:10.336Z,74.81
2018-03-11T18:47:39.542Z,74.87
2018-03-11T18:50:08.773Z,74.89
2018-03-11T18:52:37.997Z,74.94
2018-03-11T18:55:07.228Z,75.09
2018-03-11T18:57:36.508Z,75.67
2018-03-11T19:00:06.483Z,75.91
2018-03-11T19:02:35.712Z,76.63
2018-03-11T19:05:04.945Z,77.25
2018-03-11T19:07:34.196Z,77.63
2018-03-11T19:10:03.443Z,77.78
2018-03-11T19:12:32.655Z,77.87
2018-03-11T19:15:01.903Z,78.40
2018-03-11T19:17:31.133Z,78.57
2018-03-11T19:20:00.432Z,78.67
2018-03-11T19:22:29.677Z,78.81
2018-03-11T19:24:58.898Z,78.65
2018-03-11T19:27:28.879Z,78.67
2018-03-11T19:29:58.131Z,78.72
2018-03-11T19:32:27.392Z,78.84
2018-03-11T19:34:57.380Z,79.01
2018-03-11T19:37:26.641Z,78.92
2018-03-11T19:39:56.622Z,78.94
2018-03-11T19:42:25.898Z,79.04
2018-03-11T19:44:55.175Z,79.38
2018-03-11T19:47:24.421Z,79.32
2018-03-11T19:49:54.420Z,79.29
2018-03-11T19:52:23.659Z,79.29
2018-03-11T19:54:52.959Z,79.33
2018-03-11T19:57:22.189Z,79.30
2018-03-11T19:59:51.408Z,79.42
2018-03-11T20:02:20.630Z,79.51
2018-03-11T20:04:50.667Z,79.25
2018-03-11T20:07:20.681Z,79.17
2018-03-11T20:09:50.689Z,79.27
2018-03-11T20:12:20.674Z,79.37
2018-03-11T20:14:49.941Z,79.39
2018-03-11T20:17:19.142Z,79.26
2018-03-11T20:19:48.396Z,80.15
2018-03-11T20:22:18.457Z,80.31
2018-03-11T20:24:47.671Z,80.83
2018-03-11T20:27:16.906Z,81.02
2018-03-11T20:29:47.001Z,81.09
2018-03-11T20:32:16.250Z,81.37
2018-03-11T20:34:45.476Z,81.58
2018-03-11T20:37:14.702Z,81.46
2018-03-11T20:39:44.680Z,81.54
2018-03-11T20:42:13.907Z,81.52
2018-03-11T20:44:43.106Z,81.62
2018-03-11T20:47:12.369Z,81.65
2018-03-11T20:49:41.639Z,81.59
2018-03-11T20:52:10.898Z,81.60
2018-03-11T20:54:40.111Z,81.86
2018-03-11T20:57:09.429Z,81.98
2018-03-11T20:59:38.585Z,82.54
2018-03-11T21:02:07.835Z,82.77
2018-03-11T21:04:37.026Z,82.67
2018-03-11T21:07:06.349Z,82.43
2018-03-11T21:09:35.552Z,82.59
2018-03-11T21:12:04.786Z,82.52
2018-03-11T21:14:34.032Z,83.09
2018-03-11T21:17:03.264Z,83.17
2018-03-11T21:19:32.479Z,83.32
2018-03-11T21:22:01.709Z,83.14
2018-03-11T21:24:30.946Z,82.94
2018-03-11T21:27:00.380Z,82.73
2018-03-11T21:29:29.603Z,82.96
2018-03-11T21:31:58.875Z,82.77
2018-03-11T21:34:28.090Z,82.53
2018-03-11T21:36:57.287Z,82.86
2018-03-11T21:39:27.290Z,83.19
2018-03-11T21:41:56.507Z,83.61
2018-03-11T21:44:26.590Z,83.63
2018-03-11T21:46:55.865Z,83.89
2018-03-11T21:49:25.122Z,83.55
2018-03-11T21:51:54.396Z,83.60
2018-03-11T21:54:23.627Z,83.77
2018-03-11T21:56:52.848Z,83.69
2018-03-11T21:59:22.087Z,83.92
2018-03-11T22:01:52.078Z,83.95
2018-03-11T22:04:21.321Z,84.24
2018-03-11T22:06:50.628Z,84.67
2018-03-11T22:09:19.885Z,84.59
2018-03-11T22:11:49.131Z,84.47
2018-03-11T22:14:18.349Z,85.03
2018-03-11T22:16:47.606Z,85.23
2018-03-11T22:19:16.807Z,85.70
2018-03-11T22:21:46.055Z,86.28
2018-03-11T22:24:15.269Z,86.47
2018-03-11T22:26:44.833Z,86.39
2018-03-11T22:29:14.211Z,86.39
2018-03-11T22:31:43.603Z,86.28
2018-03-11T22:34:14.262Z,86.02
2018-03-11T22:36:44.313Z,85.63
2018-03-11T22:39:13.502Z,85.13
2018-03-11T22:41:42.759Z,85.07
2018-03-11T22:44:11.962Z,85.00
2018-03-11T22:46:41.955Z,84.90
2018-03-11T22:49:11.156Z,84.83
2018-03-11T22:51:40.389Z,84.77
2018-03-11T22:54:10.363Z,84.49
2018-03-11T22:56:39.627Z,84.37
2018-03-11T22:59:08.846Z,84.24
2018-03-11T23:01:38.095Z,83.98
2018-03-11T23:04:08.075Z,83.73
2018-03-11T23:06:37.355Z,84.04
2018-03-11T23:09:06.588Z,84.39
2018-03-11T23:11:35.842Z,84.53
2018-03-11T23:14:05.145Z,84.66
2018-03-11T23:16:34.356Z,85.43
2018-03-11T23:19:21.393Z,86.05
2018-03-11T23:21:50.564Z,86.07
2018-03-11T23:24:19.850Z,86.20
2018-03-11T23:26:49.044Z,86.15
2018-03-11T23:29:18.354Z,85.76
2018-03-11T23:31:47.570Z,85.41
2018-03-11T23:34:16.799Z,85.42
2018-03-11T23:36:45.994Z,85.29
2018-03-11T23:39:16.031Z,85.40
2018-03-11T23:41:45.267Z,85.69
2018-03-11T23:44:14.492Z,85.83
2018-03-11T23:46:43.683Z,85.99
2018-03-11T23:49:13.695Z,86.20
2018-03-11T23:51:42.912Z,86.21
2018-03-11T23:54:12.945Z,86.54
2018-03-11T23:56:42.206Z,86.40
2018-03-11T23:59:11.630Z,86.17
